Time;durP1;ratioP1;P1;durP2;ratioP2;P2;SDS_P1;SDS_P2;PMS_P1;PMS_P2;Temp;Humidity;BMP_temperature;BMP_pressure;BME280_temperature;BME280_humidity;BME280_pressure;Samples;Min_cycle;Max_cycle;Signal;HPM_P1;HPM_P2
2022/08/31 00:04:52;;;;;;;1.83;0.80;;;;;;;9.42;100.00;154894.06;5018901;28;20367;-73
2022/08/31 00:07:17;;;;;;;2.30;1.05;;;;;;;9.33;100.00;154871.00;5022899;28;20044;-73
2022/08/31 00:09:43;;;;;;;2.70;0.70;;;;;;;9.29;100.00;154860.75;5013938;28;20345;-72
2022/08/31 00:12:09;;;;;;;2.13;0.75;;;;;;;9.30;100.00;154864.56;4990741;28;20060;-74
2022/08/31 00:14:35;;;;;;;0.88;0.70;;;;;;;9.29;100.00;154860.75;5017126;28;20075;-72
2022/08/31 00:17:00;;;;;;;1.00;0.60;;;;;;;9.28;100.00;154859.44;5011213;28;20040;-72
2022/08/31 00:19:26;;;;;;;1.40;0.80;;;;;;;9.33;100.00;154872.25;5020384;28;20033;-73
2022/08/31 00:21:51;;;;;;;0.85;0.80;;;;;;;9.32;100.00;154869.72;5014484;28;20045;-73
2022/08/31 00:24:17;;;;;;;1.40;0.63;;;;;;;9.32;100.00;154869.72;4991889;28;20038;-73
2022/08/31 00:26:43;;;;;;;0.80;0.80;;;;;;;9.32;100.00;154868.41;5019512;28;20033;-73
2022/08/31 00:29:11;;;;;;;2.88;0.80;;;;;;;9.30;100.00;154864.56;5001930;28;20030;-73
2022/08/31 00:31:37;;;;;;;2.67;0.80;;;;;;;9.33;100.00;154871.00;5022649;28;20541;-73
2022/08/31 00:34:03;;;;;;;2.10;0.85;;;;;;;9.31;100.00;154867.13;5024988;28;20100;-73
2022/08/31 00:36:29;;;;;;;0.82;0.60;;;;;;;9.30;100.00;154863.28;5009982;28;20034;-73
2022/08/31 00:38:55;;;;;;;3.42;0.80;;;;;;;9.21;100.00;154840.22;5021630;28;20072;-74
2022/08/31 00:41:24;;;;;;;2.65;0.80;;;;;;;9.14;100.00;154823.56;5003867;28;20130;-73
2022/08/31 00:43:59;;;;;;;1.35;0.80;;;;;;;9.10;100.00;154813.31;5022060;28;20096;-73
2022/08/31 00:46:28;;;;;;;1.90;0.80;;;;;;;9.12;100.00;154818.44;4986829;28;20048;-73
2022/08/31 00:49:00;;;;;;;1.38;0.65;;;;;;;9.12;100.00;154818.44;5021538;28;20034;-73
2022/08/31 00:51:27;;;;;;;4.05;0.80;;;;;;;9.06;100.00;154804.34;5022100;28;20542;-73
2022/08/31 00:53:53;;;;;;;0.80;0.70;;;;;;;9.13;100.00;154822.25;4989719;28;20514;-73
2022/08/31 00:56:20;;;;;;;1.10;0.70;;;;;;;9.20;100.00;154838.94;5007475;28;20064;-73
2022/08/31 00:58:46;;;;;;;3.03;0.93;;;;;;;9.23;100.00;154845.34;5016803;28;20033;-74
2022/08/31 01:01:13;;;;;;;1.27;1.00;;;;;;;9.11;100.00;154815.88;5023818;28;20040;-73
2022/08/31 01:03:40;;;;;;;3.45;0.80;;;;;;;9.06;100.00;154803.03;5011794;28;20479;-73
2022/08/31 01:06:06;;;;;;;3.55;1.00;;;;;;;8.99;100.00;154785.13;5026070;28;20036;-73
2022/08/31 01:08:32;;;;;;;3.78;0.80;;;;;;;8.90;100.00;154763.31;5007389;28;20899;-74
2022/08/31 01:10:59;;;;;;;4.68;0.82;;;;;;;8.88;100.00;154758.19;5026004;28;20033;-73
2022/08/31 01:13:24;;;;;;;3.30;0.88;;;;;;;8.83;100.00;154745.38;5014939;28;20025;-73
2022/08/31 01:15:56;;;;;;;2.78;1.10;;;;;;;8.80;100.00;154737.66;5007428;28;20041;-74
2022/08/31 01:18:23;;;;;;;3.95;0.82;;;;;;;8.78;100.00;154733.84;5005992;28;20030;-74
2022/08/31 01:21:21;;;;;;;2.13;1.00;;;;;;;8.73;100.00;154722.31;5004695;28;20486;-73
2022/08/31 01:23:46;;;;;;;1.48;0.85;;;;;;;8.66;100.00;154704.34;5000549;28;20056;-74
2022/08/31 01:26:16;;;;;;;2.70;0.80;;;;;;;8.64;100.00;154697.97;5024106;28;20034;-74
2022/08/31 01:28:42;;;;;;;1.50;0.90;;;;;;;8.60;100.00;154687.72;5019141;28;20122;-74
2022/08/31 01:31:17;;;;;;;2.75;0.80;;;;;;;8.54;100.00;154674.91;5021368;28;20113;-73
2022/08/31 01:33:43;;;;;;;1.75;1.00;;;;;;;8.57;100.00;154682.59;5014974;28;20044;-73
2022/08/31 01:36:09;;;;;;;2.75;1.00;;;;;;;8.55;100.00;154676.16;5006947;28;20042;-73
2022/08/31 01:38:35;;;;;;;1.38;0.93;;;;;;;8.61;100.00;154691.56;5006359;28;20080;-73
2022/08/31 01:41:02;;;;;;;3.00;1.00;;;;;;;8.60;100.00;154689.00;5018319;28;20116;-73
2022/08/31 01:43:32;;;;;;;2.88;1.05;;;;;;;8.58;100.00;154685.13;5004480;28;20033;-73
2022/08/31 01:46:04;;;;;;;1.50;1.10;;;;;;;8.50;100.00;154664.66;5011700;28;20092;-74
2022/08/31 01:48:31;;;;;;;2.35;1.08;;;;;;;8.47;100.00;154656.94;5029325;28;20033;-73
2022/08/31 01:50:56;;;;;;;1.52;1.00;;;;;;;8.35;100.00;154626.19;5004992;28;20030;-73
2022/08/31 01:53:22;;;;;;;1.63;0.95;;;;;;;8.31;100.00;154617.22;5010884;28;20038;-73
2022/08/31 01:55:49;;;;;;;2.78;1.30;;;;;;;8.37;100.00;154632.56;5012056;28;20067;-73
2022/08/31 01:58:15;;;;;;;2.40;0.90;;;;;;;8.33;100.00;154622.34;5002107;28;20034;-73
2022/08/31 02:00:59;;;;;;;5.00;1.17;;;;;;;8.28;100.00;154609.50;5018281;28;20038;-73
2022/08/31 02:03:25;;;;;;;1.98;1.17;;;;;;;8.36;100.00;154630.03;5003741;28;20037;-73
2022/08/31 02:05:50;;;;;;;2.55;1.10;;;;;;;8.43;100.00;154646.72;5007053;28;20091;-72
2022/08/31 02:08:16;;;;;;;3.25;1.50;;;;;;;8.42;100.00;154642.84;5024003;28;20037;-73
2022/08/31 02:10:41;;;;;;;1.52;1.00;;;;;;;8.43;100.00;154646.72;5025273;28;20213;-72
2022/08/31 02:13:08;;;;;;;4.82;1.02;;;;;;;8.43;100.00;154645.44;5011266;28;20519;-72
2022/08/31 02:15:36;;;;;;;1.40;0.88;;;;;;;8.49;100.00;154660.81;5018061;28;20049;-72
2022/08/31 02:18:02;;;;;;;2.20;1.10;;;;;;;8.52;100.00;154668.50;5011815;28;20091;-72
2022/08/31 02:20:28;;;;;;;2.38;1.20;;;;;;;8.59;100.00;154686.44;5013335;28;20041;-73
2022/08/31 02:22:55;;;;;;;2.10;1.00;;;;;;;8.60;100.00;154689.00;5014999;28;20589;-73
2022/08/31 02:25:20;;;;;;;1.85;1.00;;;;;;;8.60;100.00;154689.00;5023350;28;20057;-73
2022/08/31 02:27:46;;;;;;;3.97;1.00;;;;;;;8.54;100.00;154674.91;5021405;28;20049;-73
2022/08/31 02:30:15;;;;;;;1.45;0.70;;;;;;;8.47;100.00;154655.69;5013891;28;20368;-73
2022/08/31 02:32:42;;;;;;;1.77;0.88;;;;;;;8.47;100.00;154655.69;5007178;28;20049;-73
2022/08/31 02:35:08;;;;;;;1.45;1.00;;;;;;;8.51;100.00;154667.25;4988397;28;20037;-73
2022/08/31 02:37:35;;;;;;;4.70;1.10;;;;;;;8.53;100.00;154672.38;5014997;28;20124;-73
2022/08/31 02:40:02;;;;;;;3.50;1.10;;;;;;;8.53;100.00;154672.38;5011737;28;20037;-73
2022/08/31 02:42:29;;;;;;;2.13;1.20;;;;;;;8.50;100.00;154663.38;4988096;28;20106;-73
2022/08/31 02:44:55;;;;;;;2.60;1.10;;;;;;;8.46;100.00;154654.41;5003109;28;20029;-73
2022/08/31 02:47:21;;;;;;;1.50;1.00;;;;;;;8.39;100.00;154636.41;5016705;28;20045;-73
2022/08/31 02:49:56;;;;;;;3.72;1.00;;;;;;;8.45;100.00;154650.56;5002090;28;20034;-73
2022/08/31 02:52:22;;;;;;;2.63;1.10;;;;;;;8.46;100.00;154653.16;5006682;28;20043;-74
2022/08/31 02:54:48;;;;;;;1.45;1.02;;;;;;;8.41;100.00;154641.53;5007724;28;20534;-73
2022/08/31 02:57:14;;;;;;;2.33;1.05;;;;;;;8.43;100.00;154646.72;5020845;28;20092;-73
2022/08/31 02:59:39;;;;;;;1.35;1.08;;;;;;;8.43;100.00;154645.44;5005164;28;20116;-73
2022/08/31 03:02:05;;;;;;;1.65;1.00;;;;;;;8.44;100.00;154649.28;5006030;28;20095;-74
2022/08/31 03:04:32;;;;;;;1.50;1.00;;;;;;;8.48;100.00;154659.53;5022596;28;20040;-73
2022/08/31 03:06:57;;;;;;;2.90;1.10;;;;;;;8.51;100.00;154667.25;5002018;28;20037;-73
2022/08/31 03:09:23;;;;;;;1.92;1.00;;;;;;;8.56;100.00;154680.03;5001406;28;20108;-73
2022/08/31 03:11:49;;;;;;;1.45;0.70;;;;;;;8.57;100.00;154681.34;5016749;28;20499;-73
2022/08/31 03:14:14;;;;;;;1.35;1.15;;;;;;;8.58;100.00;154683.88;5001787;28;20088;-73
2022/08/31 03:16:41;;;;;;;5.55;1.00;;;;;;;8.51;100.00;154667.25;5029899;28;20034;-73
2022/08/31 03:19:08;;;;;;;2.35;0.90;;;;;;;8.47;100.00;154656.94;5000427;28;20030;-73
2022/08/31 03:21:34;;;;;;;1.23;0.90;;;;;;;8.43;100.00;154646.72;5034699;28;20038;-73
2022/08/31 03:24:00;;;;;;;2.30;0.93;;;;;;;8.37;100.00;154632.56;5022629;28;20839;-73
2022/08/31 03:26:26;;;;;;;3.42;1.20;;;;;;;8.42;100.00;154642.84;5021744;28;20037;-73
2022/08/31 03:28:52;;;;;;;1.30;1.10;;;;;;;8.43;100.00;154646.72;5014572;28;20119;-72
2022/08/31 03:31:50;;;;;;;2.83;1.30;;;;;;;8.49;100.00;154660.81;5015149;28;20099;-73
2022/08/31 03:34:16;;;;;;;2.42;0.85;;;;;;;8.47;100.00;154655.69;5014125;28;20033;-73
2022/08/31 03:36:42;;;;;;;5.32;1.80;;;;;;;8.46;100.00;154653.16;5017560;28;20479;-73
2022/08/31 03:39:07;;;;;;;3.42;1.10;;;;;;;8.45;100.00;154651.81;5017259;28;20057;-73
2022/08/31 03:41:33;;;;;;;2.15;1.08;;;;;;;8.43;100.00;154645.44;5031986;28;20080;-72
2022/08/31 03:44:00;;;;;;;2.70;1.17;;;;;;;8.36;100.00;154628.72;5016618;28;20037;-72
2022/08/31 03:46:31;;;;;;;1.55;1.15;;;;;;;8.34;100.00;154623.59;5005949;28;20034;-73
2022/08/31 03:49:00;;;;;;;4.72;1.23;;;;;;;8.33;100.00;154621.06;4983172;28;20037;-73
2022/08/31 03:51:26;;;;;;;3.58;1.25;;;;;;;8.31;100.00;154615.94;5018838;28;20038;-72
2022/08/31 03:53:52;;;;;;;3.90;1.20;;;;;;;8.28;100.00;154609.50;5005035;28;20033;-73
2022/08/31 03:56:19;;;;;;;3.28;1.27;;;;;;;8.26;100.00;154603.13;5003603;28;20053;-73
2022/08/31 03:58:48;;;;;;;2.80;1.20;;;;;;;8.24;100.00;154598.00;5008346;28;20473;-73
2022/08/31 04:01:34;;;;;;;2.53;1.30;;;;;;;8.21;100.00;154590.28;5026579;28;20029;-73
2022/08/31 04:04:21;;;;;;;5.07;1.10;;;;;;;8.15;100.00;154577.47;5009995;28;20112;-73
2022/08/31 04:07:19;;;;;;;4.18;1.13;;;;;;;8.19;100.00;154586.44;5008328;28;20486;-73
2022/08/31 04:10:04;;;;;;;3.15;1.67;;;;;;;8.22;100.00;154594.16;5036240;28;20068;-73
2022/08/31 04:12:52;;;;;;;2.42;1.23;;;;;;;8.20;100.00;154589.03;5032923;28;20076;-73
2022/08/31 04:15:34;;;;;;;5.05;1.75;;;;;;;8.18;100.00;154583.91;5019990;28;20053;-74
2022/08/31 04:18:25;;;;;;;3.67;1.30;;;;;;;8.17;100.00;154581.31;5015101;28;20072;-73
2022/08/31 04:20:51;;;;;;;4.72;1.60;;;;;;;8.18;100.00;154583.91;5002898;28;20065;-73
2022/08/31 04:23:17;;;;;;;2.67;1.45;;;;;;;8.18;100.00;154585.19;5021075;28;20491;-73
2022/08/31 04:25:47;;;;;;;3.33;1.58;;;;;;;8.19;100.00;154586.44;5014937;28;20045;-73
2022/08/31 04:28:13;;;;;;;2.55;1.40;;;;;;;8.21;100.00;154590.28;4985091;28;20040;-75
2022/08/31 04:30:41;;;;;;;2.85;1.58;;;;;;;8.21;100.00;154591.56;5016220;28;20036;-73
2022/08/31 04:33:07;;;;;;;4.53;1.33;;;;;;;8.22;100.00;154592.88;5007776;28;20115;-73
2022/08/31 04:35:33;;;;;;;7.03;1.63;;;;;;;8.21;100.00;154591.56;5017722;28;20033;-73
2022/08/31 04:37:58;;;;;;;6.03;1.73;;;;;;;8.24;100.00;154599.28;5018283;28;20041;-73
2022/08/31 04:40:24;;;;;;;4.60;1.30;;;;;;;8.27;100.00;154606.97;5016286;28;20697;-74
2022/08/31 04:42:50;;;;;;;2.42;1.30;;;;;;;8.34;100.00;154623.59;5018483;28;20068;-74
2022/08/31 04:45:20;;;;;;;2.22;1.23;;;;;;;8.40;100.00;154639.00;5005872;28;20111;-73
2022/08/31 04:47:45;;;;;;;2.67;1.20;;;;;;;8.44;100.00;154649.28;5033648;28;20833;-73
2022/08/31 04:50:13;;;;;;;2.90;1.02;;;;;;;8.46;100.00;154653.16;4987761;28;20116;-73
2022/08/31 04:52:53;;;;;;;7.22;1.55;;;;;;;8.48;100.00;154659.53;5005706;28;20041;-73
2022/08/31 04:55:19;;;;;;;5.22;1.60;;;;;;;8.54;100.00;154673.63;5003106;28;20029;-74
2022/08/31 04:57:45;;;;;;;3.35;1.80;;;;;;;8.59;100.00;154686.44;5008521;28;20151;-73
2022/08/31 05:00:12;;;;;;;6.80;1.50;;;;;;;8.60;100.00;154687.72;5001031;28;20125;-72
2022/08/31 05:02:57;;;;;;;6.25;1.67;;;;;;;8.61;100.00;154690.25;5010075;28;20038;-73
2022/08/31 05:05:23;;;;;;;6.13;1.85;;;;;;;8.65;100.00;154701.81;5014173;28;20057;-73
2022/08/31 05:07:49;;;;;;;13.02;2.33;;;;;;;8.67;100.00;154705.66;5007703;28;20066;-73
2022/08/31 05:10:15;;;;;;;4.38;2.05;;;;;;;8.66;100.00;154703.09;5024450;28;20033;-73
2022/08/31 05:12:43;;;;;;;6.72;2.28;;;;;;;8.70;100.00;154713.31;5009046;28;20520;-74
2022/08/31 05:15:09;;;;;;;11.32;1.88;;;;;;;8.80;100.00;154737.66;5009378;28;20133;-74
2022/08/31 05:17:37;;;;;;;5.82;1.45;;;;;;;8.89;100.00;154760.75;5017246;28;20063;-74
2022/08/31 05:20:04;;;;;;;6.38;1.67;;;;;;;8.93;100.00;154772.28;4995319;28;20033;-73
2022/08/31 05:22:30;;;;;;;5.63;1.55;;;;;;;9.07;100.00;154806.88;4999498;28;20034;-73
2022/08/31 05:24:57;;;;;;;4.57;1.45;;;;;;;9.15;100.00;154827.44;5010745;28;20065;-73
2022/08/31 05:27:23;;;;;;;2.92;1.30;;;;;;;9.25;100.00;154851.78;5008005;28;20069;-72
2022/08/31 05:29:48;;;;;;;6.15;2.10;;;;;;;9.36;100.00;154878.66;5012760;28;20527;-74
2022/08/31 05:32:38;;;;;;;9.02;1.95;;;;;;;9.49;100.00;154910.72;5014907;28;20061;-73
2022/08/31 05:35:05;;;;;;;5.93;2.08;;;;;;;9.59;100.00;154935.06;4994152;28;20042;-74
2022/08/31 05:37:30;;;;;;;10.13;2.30;;;;;;;9.63;100.00;154945.38;5004579;28;20029;-73
2022/08/31 05:39:56;;;;;;;7.55;1.95;;;;;;;9.83;100.00;154996.66;5007390;28;20449;-73
2022/08/31 05:42:23;;;;;;;5.85;2.00;;;;;;;9.97;100.00;155030.00;5021947;28;20239;-73
2022/08/31 05:44:48;;;;;;;15.52;2.13;;;;;;;10.17;100.00;155081.31;5025810;28;20543;-74
2022/08/31 05:47:15;;;;;;;9.13;2.22;;;;;;;10.46;100.00;155153.16;5009021;28;20038;-74
2022/08/31 05:49:42;;;;;;;10.65;2.22;;;;;;;10.73;100.00;155221.16;5023864;28;20108;-74
2022/08/31 05:52:10;;;;;;;9.50;1.70;;;;;;;11.02;100.00;155293.00;4988804;28;20442;-74
2022/08/31 05:54:36;;;;;;;10.02;1.80;;;;;;;11.19;100.00;155336.66;5026258;28;20538;-74
2022/08/31 05:57:03;;;;;;;3.67;1.20;;;;;;;11.60;100.00;155438.03;5012795;28;20120;-73
2022/08/31 05:59:30;;;;;;;3.50;1.40;;;;;;;11.74;100.00;155472.72;5040560;28;20109;-74
2022/08/31 06:01:57;;;;;;;6.90;1.42;;;;;;;11.94;100.00;155524.16;4986296;28;20030;-74
2022/08/31 06:04:26;;;;;;;4.75;1.10;;;;;;;12.13;100.00;155570.34;5015353;28;20065;-74
2022/08/31 06:06:52;;;;;;;6.50;1.30;;;;;;;12.36;100.00;155628.16;5019462;28;20037;-74
2022/08/31 06:09:22;;;;;;;3.17;1.02;;;;;;;12.48;100.00;155657.69;5031504;28;20049;-74
2022/08/31 06:11:48;;;;;;;7.53;0.93;;;;;;;12.66;100.00;155703.94;5026040;28;20247;-75
2022/08/31 06:14:17;;;;;;;9.80;1.10;;;;;;;12.85;100.00;155752.75;5007617;28;20543;-74
2022/08/31 06:16:44;;;;;;;5.68;1.35;;;;;;;13.11;100.00;155815.69;5003765;28;20507;-75
2022/08/31 06:19:11;;;;;;;10.57;1.20;;;;;;;13.22;100.00;155843.97;5002795;28;20048;-74
2022/08/31 06:21:41;;;;;;;9.48;1.50;;;;;;;13.41;100.00;155892.88;5012066;28;20132;-74
2022/08/31 06:24:10;;;;;;;4.68;1.10;;;;;;;13.58;100.00;155933.97;5028027;28;20056;-74
2022/08/31 06:26:38;;;;;;;10.45;1.27;;;;;;;13.72;100.00;155969.97;5010346;28;20038;-75
2022/08/31 06:29:10;;;;;;;;;;;;;;;13.95;100.00;156027.81;5014013;28;20037;-74
2022/08/31 06:31:41;;;;;;;5.07;1.00;;;;;;;14.16;100.00;156079.25;5017316;28;20409;-74
2022/08/31 06:34:07;;;;;;;4.72;1.10;;;;;;;14.27;100.00;156107.53;5007987;28;20571;-74
2022/08/31 06:36:56;;;;;;;7.38;1.40;;;;;;;14.46;99.87;156153.84;5018349;28;20038;-73
2022/08/31 06:39:32;;;;;;;2.78;1.05;;;;;;;14.53;97.87;156171.84;5024668;28;20060;-74
2022/08/31 06:42:14;;;;;;;3.63;0.90;;;;;;;14.67;97.49;156207.88;5015293;28;20030;-74
2022/08/31 06:44:55;;;;;;;5.18;0.98;;;;;;;14.87;96.04;156256.78;5025542;28;20491;-74
2022/08/31 06:47:27;;;;;;;5.45;0.90;;;;;;;14.97;95.73;156282.50;5019179;28;20128;-74
2022/08/31 06:49:56;;;;;;;1.75;0.88;;;;;;;15.03;94.05;156296.66;5035790;28;20120;-73
2022/08/31 06:52:22;;;;;;;3.40;0.70;;;;;;;15.10;93.13;156314.69;4999527;28;20083;-74
2022/08/31 06:55:03;;;;;;;10.10;0.80;;;;;;;15.25;92.94;156352.00;5035701;28;20526;-73
2022/08/31 06:58:01;;;;;;;4.32;0.80;;;;;;;15.34;91.76;156376.44;4998833;28;20164;-73
2022/08/31 07:00:52;;;;;;;6.75;0.85;;;;;;;15.56;90.75;156431.78;5017123;28;20560;-74
2022/08/31 07:03:42;;;;;;;4.43;0.80;;;;;;;15.76;91.03;156480.72;5007311;28;20124;-74
2022/08/31 07:06:10;;;;;;;3.40;1.00;;;;;;;15.93;91.95;156523.19;5022310;28;20038;-75
2022/08/31 07:08:40;;;;;;;3.80;0.75;;;;;;;16.12;88.96;156572.13;5035651;28;20037;-75
2022/08/31 07:11:11;;;;;;;5.18;0.80;;;;;;;16.39;88.04;156637.75;5023235;28;20029;-74
2022/08/31 07:13:47;;;;;;;6.03;1.23;;;;;;;16.51;85.92;156668.66;5036627;28;20038;-75
2022/08/31 07:16:15;;;;;;;7.50;1.00;;;;;;;16.62;85.52;156695.72;5005242;28;20546;-74
2022/08/31 07:18:43;;;;;;;10.45;1.08;;;;;;;16.71;88.46;156720.16;5009963;28;20033;-72
2022/08/31 07:21:15;;;;;;;5.43;0.88;;;;;;;16.92;83.59;156773.00;5008041;28;20033;-73
2022/08/31 07:23:43;;;;;;;2.83;0.82;;;;;;;16.93;85.03;156775.63;5034936;28;20399;-74
2022/08/31 07:26:24;;;;;;;5.68;0.70;;;;;;;16.99;83.11;156789.78;5004454;28;20037;-75
2022/08/31 07:28:52;;;;;;;1.80;0.55;;;;;;;17.06;82.05;156806.50;5035589;28;20446;-73
2022/08/31 07:31:22;;;;;;;2.20;0.80;;;;;;;17.10;82.38;156816.78;5012442;28;20030;-73
2022/08/31 07:33:51;;;;;;;3.05;0.80;;;;;;;17.07;81.18;156809.09;5020442;28;20041;-72
2022/08/31 07:36:17;;;;;;;1.80;0.50;;;;;;;17.18;81.76;156836.09;4995630;28;20132;-74
2022/08/31 07:44:28;;;;;;;4.82;0.73;;;;;;;17.68;80.44;156962.38;5014249;28;20045;-73
2022/08/31 07:46:54;;;;;;;0.82;0.40;;;;;;;17.73;80.12;156974.00;5005008;28;20029;-74
2022/08/31 07:49:22;;;;;;;1.95;0.50;;;;;;;17.82;78.46;156998.47;4999125;28;20037;-72
2022/08/31 07:52:11;;;;;;;0.50;0.50;;;;;;;17.99;75.91;157041.03;5019676;28;20144;-74
2022/08/31 07:54:48;;;;;;;0.98;0.50;;;;;;;18.03;76.02;157051.34;5002321;28;20048;-74
2022/08/31 07:57:30;;;;;;;4.97;0.60;;;;;;;18.05;75.60;157055.22;5007910;28;20037;-75
2022/08/31 08:00:06;;;;;;;1.08;0.45;;;;;;;18.09;74.38;157066.78;5021492;28;20033;-72
2022/08/31 08:02:44;;;;;;;0.35;0.32;;;;;;;18.27;74.59;157110.59;5021425;28;20124;-74
2022/08/31 08:05:21;;;;;;;0.60;0.47;;;;;;;18.35;75.69;157129.97;4997009;28;20034;-73
2022/08/31 08:08:07;;;;;;;0.82;0.40;;;;;;;18.53;73.37;157176.34;5016356;28;20121;-74
2022/08/31 08:10:53;;;;;;;0.85;0.40;;;;;;;18.49;72.49;157166.03;5019508;28;20136;-76
2022/08/31 08:13:24;;;;;;;0.38;0.38;;;;;;;18.52;71.45;157172.50;5019392;28;20060;-74
2022/08/31 08:16:04;;;;;;;3.08;0.50;;;;;;;18.58;70.86;157189.25;5021792;28;20056;-73
2022/08/31 08:18:59;;;;;;;1.35;0.82;;;;;;;18.80;71.07;157243.41;5036060;28;20120;-74
2022/08/31 08:21:27;;;;;;;1.00;0.50;;;;;;;18.89;68.90;157266.63;5020674;28;20025;-73
2022/08/31 08:23:54;;;;;;;11.75;0.63;;;;;;;18.81;69.88;157247.28;5025969;28;20045;-73
2022/08/31 08:26:47;;;;;;;3.63;0.77;;;;;;;18.96;69.34;157283.41;5020414;28;20041;-73
2022/08/31 08:29:43;;;;;;;0.75;0.50;;;;;;;18.89;69.94;157265.34;5018013;28;20479;-74
2022/08/31 08:32:14;;;;;;;0.30;0.30;;;;;;;19.15;69.09;157332.38;4992497;28;20036;-73
2022/08/31 08:34:42;;;;;;;0.82;0.52;;;;;;;19.29;65.16;157367.22;5026347;28;20041;-73
2022/08/31 08:37:12;;;;;;;1.52;0.40;;;;;;;19.38;64.14;157389.13;4989502;28;20037;-74
2022/08/31 08:39:41;;;;;;;1.33;0.32;;;;;;;19.60;63.75;157444.59;5011682;28;20106;-74
2022/08/31 08:42:13;;;;;;;0.88;0.50;;;;;;;19.54;62.13;157429.13;5023502;28;20035;-74
2022/08/31 08:44:40;;;;;;;1.20;0.50;;;;;;;19.56;63.24;157434.28;5037789;28;20042;-73
2022/08/31 08:47:13;;;;;;;1.65;0.55;;;;;;;19.52;63.81;157425.25;5022730;28;20037;-74
2022/08/31 08:49:48;;;;;;;0.80;0.50;;;;;;;19.59;64.47;157442.00;5019800;28;20045;-74
2022/08/31 08:52:29;;;;;;;1.38;0.28;;;;;;;19.77;61.16;157488.50;5011394;28;20035;-72
2022/08/31 08:55:01;;;;;;;1.45;0.40;;;;;;;19.78;61.14;157491.09;5020088;28;20125;-74
2022/08/31 08:57:31;;;;;;;0.60;0.35;;;;;;;19.91;60.65;157522.03;5022236;28;20038;-74
2022/08/31 09:00:06;;;;;;;1.23;0.50;;;;;;;20.01;58.20;157549.13;5020751;28;20033;-74
2022/08/31 09:03:00;;;;;;;1.80;0.40;;;;;;;20.11;58.13;157573.63;5006119;28;20038;-74
2022/08/31 09:05:55;;;;;;;1.63;0.40;;;;;;;20.17;59.17;157587.81;4993245;28;20077;-73
2022/08/31 09:09:16;;;;;;;2.70;0.40;;;;;;;20.33;58.47;157629.13;5008819;28;20573;-72
2022/08/31 09:12:19;;;;;;;0.25;0.25;;;;;;;20.24;55.46;157605.91;5016928;28;20057;-74
2022/08/31 09:14:47;;;;;;;0.57;0.35;;;;;;;20.11;56.08;157573.63;5005402;28;20041;-74
2022/08/31 09:17:23;;;;;;;0.52;0.40;;;;;;;19.67;56.71;157462.66;4999176;28;20076;-75
2022/08/31 09:20:00;;;;;;;2.08;0.43;;;;;;;19.12;57.08;157323.34;5024473;28;20124;-73
2022/08/31 09:22:30;;;;;;;1.15;0.30;;;;;;;18.81;59.66;157246.00;5027867;28;20029;-72
2022/08/31 09:24:58;;;;;;;0.30;0.30;;;;;;;19.19;59.35;157342.75;4993492;28;20668;-75
2022/08/31 09:27:57;;;;;;;0.30;0.30;;;;;;;19.38;59.73;157390.47;5008630;28;20033;-74
2022/08/31 09:30:49;;;;;;;0.35;0.30;;;;;;;19.47;59.91;157412.34;5029959;28;20029;-74
2022/08/31 09:33:24;;;;;;;1.07;0.63;;;;;;;19.78;57.79;157491.09;5026125;28;20083;-74
2022/08/31 09:35:55;;;;;;;0.30;0.30;;;;;;;20.12;57.43;157574.97;5019747;28;20568;-74
2022/08/31 09:38:38;;;;;;;0.85;0.50;;;;;;;20.32;56.07;157625.25;5008259;28;20837;-74
2022/08/31 09:41:07;;;;;;;;;;;;;;;20.37;56.03;157639.44;5025869;28;20112;-73
2022/08/31 09:43:37;;;;;;;0.45;0.30;;;;;;;20.36;55.35;157635.56;5005170;28;19940;-74
2022/08/31 09:46:11;;;;;;;0.50;0.40;;;;;;;20.32;54.68;157626.53;5015540;28;20029;-75
2022/08/31 09:48:51;;;;;;;1.50;0.50;;;;;;;20.52;56.16;157675.59;4998946;28;20124;-75
2022/08/31 09:51:28;;;;;;;0.32;0.32;;;;;;;20.69;55.77;157719.50;5006043;28;20037;-74
2022/08/31 09:56:53;;;;;;;0.95;0.50;;;;;;;20.73;54.80;157728.53;5004301;28;20566;-74
2022/08/31 09:59:50;;;;;;;2.05;0.50;;;;;;;20.31;55.91;157622.69;5021442;28;20044;-73
2022/08/31 10:02:24;;;;;;;1.58;0.40;;;;;;;19.94;55.84;157529.78;5019867;28;20034;-75
2022/08/31 10:04:57;;;;;;;0.43;0.43;;;;;;;20.11;55.73;157573.63;5036739;28;20045;-74
2022/08/31 10:07:36;;;;;;;1.17;0.40;;;;;;;20.67;54.62;157714.34;5037657;28;20151;-73
2022/08/31 10:10:14;;;;;;;0.63;0.35;;;;;;;20.92;53.98;157777.56;5040903;28;20068;-74
2022/08/31 10:12:49;;;;;;;4.10;0.40;;;;;;;21.29;53.54;157869.25;5009912;28;20403;-74
2022/08/31 10:15:23;;;;;;;1.27;0.50;;;;;;;21.59;52.49;157945.47;5020737;28;20447;-73
2022/08/31 10:18:01;;;;;;;1.75;0.40;;;;;;;22.05;51.66;158061.66;5004161;28;20136;-74
2022/08/31 10:20:37;;;;;;;1.67;0.30;;;;;;;22.02;51.39;158053.94;5020803;28;20565;-74
2022/08/31 10:23:17;;;;;;;2.72;0.50;;;;;;;21.46;52.12;157911.91;5018044;28;20065;-73
2022/08/31 10:25:51;;;;;;;0.40;0.40;;;;;;;21.84;51.42;158008.72;5036924;28;20051;-72
2022/08/31 10:28:36;;;;;;;0.95;0.38;;;;;;;21.01;52.12;157799.53;5015299;28;20025;-73
2022/08/31 10:31:09;;;;;;;2.35;0.60;;;;;;;20.98;53.57;157793.09;5007424;28;20135;-73
2022/08/31 10:36:32;;;;;;;0.40;0.30;;;;;;;21.36;52.23;157887.28;5034069;28;20040;-75
2022/08/31 10:38:59;;;;;;;1.30;0.50;;;;;;;21.23;51.30;157853.72;5011261;28;20033;-74
2022/08/31 10:41:29;;;;;;;1.55;0.40;;;;;;;21.50;50.45;157922.22;5020888;28;20696;-74
2022/08/31 10:44:22;;;;;;;4.43;0.60;;;;;;;21.50;51.30;157923.50;5003484;28;20048;-73
2022/08/31 10:46:53;;;;;;;3.33;0.60;;;;;;;20.98;51.33;157791.75;5007788;28;20060;-73
2022/08/31 10:49:21;;;;;;;1.20;0.77;;;;;;;21.08;51.88;157816.28;5003951;28;20048;-73
2022/08/31 10:52:02;;;;;;;3.53;0.65;;;;;;;20.61;52.49;157700.16;5033659;28;20108;-73
2022/08/31 10:54:43;;;;;;;1.77;0.40;;;;;;;20.88;53.29;157765.97;5026149;28;20029;-73
2022/08/31 10:57:33;;;;;;;0.85;0.40;;;;;;;20.70;52.83;157720.78;5016090;28;20046;-73
2022/08/31 11:00:40;;;;;;;5.45;0.50;;;;;;;20.47;54.31;157662.66;5018449;28;20413;-74
2022/08/31 11:03:15;;;;;;;0.57;0.32;;;;;;;20.87;53.17;157763.38;5014841;28;20528;-75
2022/08/31 11:05:47;;;;;;;0.93;0.50;;;;;;;21.24;52.58;157857.59;5022396;28;20445;-74
2022/08/31 11:08:34;;;;;;;2.30;0.50;;;;;;;21.67;50.91;157964.84;5010911;28;20481;-73
2022/08/31 11:11:01;;;;;;;1.33;0.50;;;;;;;21.94;49.39;158033.25;5009518;28;20502;-73
2022/08/31 11:13:39;;;;;;;3.33;0.43;;;;;;;22.02;48.25;158053.94;5026907;28;20037;-72
2022/08/31 11:16:25;;;;;;;1.23;0.47;;;;;;;22.44;47.60;158158.59;5034890;28;20912;-74
2022/08/31 11:19:12;;;;;;;0.40;0.30;;;;;;;22.59;46.86;158196.06;5032301;28;20535;-73
2022/08/31 11:22:12;;;;;;;2.05;0.45;;;;;;;22.73;47.55;158233.53;5021974;28;20085;-73
2022/08/31 11:25:13;;;;;;;0.70;0.50;;;;;;;22.93;46.70;158282.63;5021492;28;20045;-74
2022/08/31 11:27:49;;;;;;;3.13;0.50;;;;;;;22.62;47.21;158203.78;5021595;28;20048;-74
2022/08/31 11:30:27;;;;;;;0.93;0.40;;;;;;;22.29;47.46;158121.13;5023230;28;20108;-74
2022/08/31 11:32:58;;;;;;;0.65;0.40;;;;;;;21.60;49.53;157948.03;5021487;28;20033;-73
2022/08/31 11:36:08;;;;;;;0.70;0.50;;;;;;;21.15;50.39;157834.38;5021266;28;20036;-74
2022/08/31 11:39:00;;;;;;;2.65;0.57;;;;;;;20.74;52.69;157732.44;5016292;28;20049;-74
2022/08/31 11:41:35;;;;;;;0.80;0.30;;;;;;;20.75;52.61;157733.69;5028234;28;20037;-74
2022/08/31 11:44:03;;;;;;;2.00;0.40;;;;;;;21.51;50.81;157926.09;4999152;28;20487;-74
2022/08/31 11:46:32;;;;;;;1.13;0.40;;;;;;;22.15;48.88;158087.50;5006500;28;20049;-73
2022/08/31 11:48:58;;;;;;;0.75;0.40;;;;;;;22.58;47.07;158194.75;5023549;28;20033;-74
2022/08/31 11:51:39;;;;;;;1.17;0.50;;;;;;;22.42;47.96;158154.72;5009250;28;20037;-74
2022/08/31 11:54:25;;;;;;;0.60;0.50;;;;;;;22.27;48.55;158117.25;5031169;28;20029;-73
2022/08/31 11:56:55;;;;;;;1.30;0.40;;;;;;;22.19;48.16;158095.22;5011605;28;20044;-74
2022/08/31 11:59:33;;;;;;;0.75;0.40;;;;;;;22.02;49.45;158052.63;4997766;28;20117;-74
2022/08/31 12:02:18;;;;;;;2.42;0.47;;;;;;;21.63;49.92;157954.50;5018770;28;20115;-74
2022/08/31 12:04:56;;;;;;;3.60;0.50;;;;;;;21.47;50.26;157914.47;5019505;28;20046;-77